Time;durP1;ratioP1;P1;durP2;ratioP2;P2;SDS_P1;SDS_P2;PMS_P1;PMS_P2;Temp;Humidity;BMP_temperature;BMP_pressure;BME280_temperature;BME280_humidity;BME280_pressure;Samples;Min_cycle;Max_cycle;Signal;HPM_P1;HPM_P2
2022/04/06 00:01:36;;;;;;;98.28;37.67;;;6.60;99.90;;;;;;4995329;28;20478;-83
2022/04/06 00:04:02;;;;;;;110.05;42.05;;;6.60;99.90;;;;;;5012891;28;20034;-83
2022/04/06 00:06:28;;;;;;;108.88;40.60;;;6.60;99.90;;;;;;4995126;28;20393;-83
2022/04/06 00:08:54;;;;;;;104.90;38.90;;;6.60;99.90;;;;;;4995104;28;20022;-83
2022/04/06 00:11:19;;;;;;;111.30;40.95;;;6.60;99.90;;;;;;4995616;28;20236;-84
2022/04/06 00:13:45;;;;;;;113.03;40.25;;;6.60;99.90;;;;;;4995452;28;20079;-84
2022/04/06 00:16:11;;;;;;;109.22;41.42;;;6.60;99.90;;;;;;5028247;28;20041;-84
2022/04/06 00:18:37;;;;;;;104.82;41.65;;;6.60;99.90;;;;;;4995050;28;20061;-84
2022/04/06 00:21:03;;;;;;;105.72;41.10;;;6.60;99.90;;;;;;4995573;28;20112;-84
2022/04/06 00:23:29;;;;;;;107.50;41.15;;;6.60;99.90;;;;;;4995556;28;20044;-85
2022/04/06 00:25:55;;;;;;;114.43;41.92;;;6.60;99.90;;;;;;4995296;28;20384;-84
2022/04/06 00:28:21;;;;;;;109.30;43.10;;;6.60;99.90;;;;;;4995022;28;20030;-85
2022/04/06 00:30:47;;;;;;;109.10;41.10;;;6.60;99.90;;;;;;5011629;28;20812;-84
2022/04/06 00:33:13;;;;;;;117.05;42.65;;;6.60;99.90;;;;;;5012515;28;20029;-84
2022/04/06 00:35:39;;;;;;;107.57;42.70;;;6.60;99.90;;;;;;4994831;28;20030;-84
2022/04/06 00:38:06;;;;;;;113.45;42.72;;;6.60;99.90;;;;;;4995251;28;20040;-85
2022/04/06 00:40:33;;;;;;;105.13;42.30;;;6.70;99.90;;;;;;4995423;28;20040;-84
2022/04/06 00:43:00;;;;;;;113.13;42.40;;;6.70;99.90;;;;;;5013053;28;20080;-85
2022/04/06 00:45:26;;;;;;;117.32;46.08;;;6.60;99.90;;;;;;4995429;28;20032;-84
2022/04/06 00:47:53;;;;;;;119.25;44.88;;;6.60;99.90;;;;;;4995762;28;20486;-85
2022/04/06 00:50:20;;;;;;;121.05;43.60;;;6.70;99.90;;;;;;4999309;28;20037;-85
2022/04/06 00:52:48;;;;;;;100.57;40.78;;;6.60;99.90;;;;;;4998940;28;20029;-85
2022/04/06 00:55:14;;;;;;;111.38;42.83;;;6.60;99.90;;;;;;5031645;28;20026;-84
2022/04/06 00:57:40;;;;;;;116.72;43.45;;;6.60;99.90;;;;;;5014864;28;20091;-84
2022/04/06 01:00:10;;;;;;;115.18;42.25;;;6.60;99.90;;;;;;4998635;28;20022;-85
2022/04/06 01:02:36;;;;;;;106.78;41.78;;;6.60;99.90;;;;;;4998689;28;20036;-83
2022/04/06 01:05:02;;;;;;;115.40;43.58;;;6.70;99.90;;;;;;4998408;28;20044;-83
2022/04/06 01:07:29;;;;;;;119.38;45.42;;;6.70;99.90;;;;;;4998450;28;20120;-83
2022/04/06 01:09:55;;;;;;;129.07;48.45;;;6.70;99.90;;;;;;4999164;28;20050;-84
2022/04/06 01:12:21;;;;;;;131.93;46.58;;;6.70;99.90;;;;;;4998954;28;20061;-85
2022/04/06 01:14:47;;;;;;;122.30;45.92;;;6.70;99.90;;;;;;4999220;28;20030;-85
2022/04/06 01:17:35;;;;;;;115.82;46.40;;;6.70;99.90;;;;;;4998930;28;20038;-85
2022/04/06 01:20:03;;;;;;;118.60;46.60;;;6.70;99.90;;;;;;5048436;28;20045;-85
2022/04/06 01:22:38;;;;;;;131.18;49.25;;;6.70;99.90;;;;;;5015277;28;20038;-85
2022/04/06 01:25:05;;;;;;;126.35;48.50;;;6.60;99.90;;;;;;4998990;28;20030;-85
2022/04/06 01:27:31;;;;;;;136.88;48.85;;;6.70;99.90;;;;;;5014777;28;20038;-85
2022/04/06 01:29:57;;;;;;;113.68;47.92;;;6.70;99.90;;;;;;4998653;28;20036;-85
2022/04/06 01:32:24;;;;;;;125.20;48.47;;;6.70;99.90;;;;;;4998289;28;20024;-85
2022/04/06 01:34:53;;;;;;;117.97;47.25;;;6.70;99.90;;;;;;4998256;28;20034;-85
2022/04/06 01:37:19;;;;;;;113.18;47.58;;;6.70;99.90;;;;;;4998092;28;20069;-83
2022/04/06 01:39:46;;;;;;;111.13;44.67;;;6.70;99.90;;;;;;4998131;28;20061;-82
2022/04/06 01:42:15;;;;;;;127.68;48.15;;;6.60;99.90;;;;;;4998789;28;20084;-83
2022/04/06 01:44:41;;;;;;;120.90;48.10;;;6.60;99.90;;;;;;4998450;28;20124;-83
2022/04/06 01:47:08;;;;;;;123.75;49.22;;;6.60;99.90;;;;;;5015187;28;20041;-83
2022/04/06 01:52:20;;;;;;;115.60;45.50;;;6.60;99.90;;;;;;5031500;28;20600;-84
2022/04/06 01:54:49;;;;;;;119.20;48.28;;;6.60;99.90;;;;;;4998112;28;20046;-84
2022/04/06 01:57:16;;;;;;;124.00;46.70;;;6.60;99.90;;;;;;4998106;28;20059;-85
2022/04/06 01:59:43;;;;;;;129.70;50.00;;;6.60;99.90;;;;;;4997588;28;20029;-84
2022/04/06 02:02:10;;;;;;;114.82;45.63;;;6.60;99.90;;;;;;5030872;28;20030;-84
2022/04/06 02:04:40;;;;;;;113.80;46.22;;;6.60;99.90;;;;;;5030551;28;20041;-85
2022/04/06 02:07:06;;;;;;;110.60;46.35;;;6.60;99.90;;;;;;5013378;28;20478;-84
2022/04/06 02:09:32;;;;;;;124.70;44.47;;;6.60;99.90;;;;;;4997817;28;20041;-84
2022/04/06 02:12:00;;;;;;;116.07;45.95;;;6.60;99.90;;;;;;4997832;28;20034;-84
2022/04/06 02:14:26;;;;;;;109.90;44.88;;;6.60;99.90;;;;;;4998195;28;20037;-83
2022/04/06 02:16:53;;;;;;;106.90;43.03;;;6.60;99.90;;;;;;5015585;28;20083;-82
2022/04/06 02:19:19;;;;;;;105.90;44.35;;;6.60;99.90;;;;;;4998072;28;20176;-83
2022/04/06 02:21:44;;;;;;;100.82;41.22;;;6.60;99.90;;;;;;4997382;28;20488;-82
2022/04/06 02:24:11;;;;;;;109.65;42.67;;;6.60;99.90;;;;;;5013871;28;20489;-82
2022/04/06 02:26:37;;;;;;;107.28;45.53;;;6.60;99.90;;;;;;4997706;28;20119;-82
2022/04/06 02:29:03;;;;;;;116.40;47.35;;;6.60;99.90;;;;;;4996514;28;20508;-82
2022/04/06 02:31:29;;;;;;;114.25;42.92;;;6.60;99.90;;;;;;4997016;28;20041;-82
2022/04/06 02:33:54;;;;;;;109.03;42.40;;;6.60;99.90;;;;;;4997587;28;20389;-83
2022/04/06 02:36:20;;;;;;;98.10;41.35;;;6.60;99.90;;;;;;4997387;28;20515;-82
2022/04/06 02:38:46;;;;;;;103.97;41.92;;;6.60;99.90;;;;;;4997244;28;20559;-82
2022/04/06 02:41:13;;;;;;;97.95;40.17;;;6.70;99.90;;;;;;4997358;28;20389;-82
2022/04/06 02:43:39;;;;;;;99.03;39.00;;;6.60;99.90;;;;;;5014978;28;20030;-82
2022/04/06 02:46:05;;;;;;;96.93;38.92;;;6.60;99.90;;;;;;5030165;28;20044;-83
2022/04/06 02:48:31;;;;;;;100.10;41.17;;;6.60;99.90;;;;;;5030082;28;20638;-83
2022/04/06 02:50:56;;;;;;;103.60;39.60;;;6.60;99.90;;;;;;4996881;28;20030;-83
2022/04/06 02:53:22;;;;;;;100.30;40.22;;;6.60;99.90;;;;;;4997044;28;20037;-82
2022/04/06 02:55:48;;;;;;;94.38;37.30;;;6.60;99.90;;;;;;4997235;28;20030;-82
2022/04/06 02:58:14;;;;;;;94.35;40.33;;;6.60;99.90;;;;;;4996031;28;20080;-83
2022/04/06 03:00:40;;;;;;;88.88;36.13;;;6.60;99.90;;;;;;5013505;28;20029;-82
2022/04/06 03:03:06;;;;;;;89.50;38.25;;;6.60;99.90;;;;;;4997215;28;20026;-83
2022/04/06 03:05:35;;;;;;;83.93;36.33;;;6.60;99.90;;;;;;4996740;28;20034;-82
2022/04/06 03:08:01;;;;;;;92.72;38.97;;;6.60;99.90;;;;;;4996573;28;20057;-83
2022/04/06 03:10:26;;;;;;;95.22;38.00;;;6.60;99.90;;;;;;4995535;28;20034;-83
2022/04/06 03:12:52;;;;;;;87.70;35.90;;;6.70;99.90;;;;;;4996774;28;20500;-82
2022/04/06 03:15:18;;;;;;;94.93;38.75;;;6.60;99.90;;;;;;4997104;28;20040;-82
2022/04/06 03:17:44;;;;;;;89.78;37.85;;;6.70;99.90;;;;;;4988579;28;20022;-83
2022/04/06 03:20:14;;;;;;;92.10;35.70;;;6.70;99.90;;;;;;4996791;28;20034;-83
2022/04/06 03:22:41;;;;;;;87.78;35.60;;;6.70;99.90;;;;;;5012700;28;20034;-83
2022/04/06 03:25:07;;;;;;;94.15;37.25;;;6.70;99.90;;;;;;4995379;28;20477;-83
2022/04/06 03:27:34;;;;;;;85.72;35.25;;;6.70;99.90;;;;;;4979808;28;20034;-83
2022/04/06 03:30:01;;;;;;;87.65;36.58;;;6.60;99.90;;;;;;5028962;28;20029;-83
2022/04/06 03:32:26;;;;;;;83.18;34.15;;;6.70;99.90;;;;;;5012505;28;20477;-84
2022/04/06 03:35:05;;;;;;;91.93;38.35;;;6.70;99.90;;;;;;4996111;28;20040;-85
2022/04/06 03:37:30;;;;;;;81.45;34.63;;;6.60;99.90;;;;;;4979201;28;20500;-85
2022/04/06 03:39:56;;;;;;;77.05;32.97;;;6.70;99.90;;;;;;4995846;28;20065;-85
2022/04/06 03:42:22;;;;;;;92.18;36.90;;;6.60;99.90;;;;;;4995963;28;20041;-85
2022/04/06 03:45:04;;;;;;;77.63;34.78;;;6.70;99.90;;;;;;4996317;28;20481;-85
2022/04/06 03:47:35;;;;;;;76.25;33.33;;;6.60;99.90;;;;;;4995891;28;20045;-85
2022/04/06 03:50:03;;;;;;;84.70;37.35;;;6.60;99.90;;;;;;5012807;28;20030;-85
2022/04/06 03:52:29;;;;;;;81.60;36.35;;;6.60;99.90;;;;;;5014171;28;20022;-85
2022/04/06 03:54:55;;;;;;;81.82;35.63;;;6.70;99.90;;;;;;5013998;28;20164;-85
2022/04/06 03:57:21;;;;;;;85.63;34.90;;;6.60;99.90;;;;;;4995862;28;20054;-85
2022/04/06 04:00:07;;;;;;;94.13;38.22;;;6.60;99.90;;;;;;4996423;28;20030;-85
2022/04/06 04:02:35;;;;;;;80.43;35.75;;;6.60;99.90;;;;;;5029403;28;20034;-85
2022/04/06 04:05:00;;;;;;;86.93;36.47;;;6.60;99.90;;;;;;4996049;28;20048;-85
2022/04/06 04:07:45;;;;;;;84.88;35.33;;;6.60;99.90;;;;;;4995568;28;20401;-85
2022/04/06 04:10:10;;;;;;;87.32;35.55;;;6.60;99.90;;;;;;4996093;28;20036;-84
2022/04/06 04:12:38;;;;;;;87.88;34.85;;;6.60;99.90;;;;;;4996283;28;20030;-85
2022/04/06 04:15:05;;;;;;;86.95;36.35;;;6.60;99.90;;;;;;5012439;28;20030;-85
2022/04/06 04:17:31;;;;;;;97.22;35.65;;;6.60;99.90;;;;;;4995820;28;20401;-85
2022/04/06 04:19:57;;;;;;;90.05;36.75;;;6.60;99.90;;;;;;4996124;28;20037;-85
2022/04/06 04:22:23;;;;;;;86.95;34.13;;;6.60;99.90;;;;;;4979700;28;20053;-85
2022/04/06 04:24:49;;;;;;;93.75;36.40;;;6.60;99.90;;;;;;4995714;28;20029;-85
2022/04/06 04:27:15;;;;;;;92.53;32.80;;;6.60;99.90;;;;;;4995384;28;20386;-85
2022/04/06 04:29:42;;;;;;;82.88;32.45;;;6.60;99.90;;;;;;4995117;28;20130;-85
2022/04/06 04:32:10;;;;;;;76.10;32.30;;;6.70;99.90;;;;;;4995569;28;20034;-85
2022/04/06 04:35:19;;;;;;;91.82;37.00;;;6.60;99.90;;;;;;4996075;28;20034;-85
2022/04/06 04:37:45;;;;;;;76.10;28.70;;;6.70;99.90;;;;;;5044472;28;20034;-85
2022/04/06 04:40:11;;;;;;;90.05;35.90;;;6.70;99.90;;;;;;4995687;28;20033;-85
2022/04/06 04:42:36;;;;;;;92.60;35.10;;;6.70;99.90;;;;;;4995315;28;20104;-85
2022/04/06 04:45:04;;;;;;;102.10;40.13;;;6.70;99.90;;;;;;4995364;28;20126;-86
2022/04/06 04:47:45;;;;;;;96.45;35.90;;;6.70;99.90;;;;;;4995091;28;20041;-83
2022/04/06 04:50:11;;;;;;;80.63;31.50;;;6.70;99.90;;;;;;4995836;28;20034;-83
2022/04/06 04:52:36;;;;;;;76.47;31.60;;;6.70;99.90;;;;;;4995400;28;20034;-83
2022/04/06 04:55:02;;;;;;;82.78;30.75;;;6.70;99.90;;;;;;4995226;28;20022;-83
2022/04/06 04:57:28;;;;;;;89.28;33.70;;;6.60;99.90;;;;;;4995702;28;20116;-83
2022/04/06 04:59:54;;;;;;;80.40;31.73;;;6.70;99.90;;;;;;4995700;28;20034;-83
2022/04/06 05:02:20;;;;;;;79.45;30.95;;;6.70;99.90;;;;;;4995515;28;20026;-83
2022/04/06 05:04:47;;;;;;;80.35;30.70;;;6.70;99.90;;;;;;5028178;28;20038;-83
2022/04/06 05:07:13;;;;;;;78.35;30.55;;;6.60;99.90;;;;;;5027934;28;20034;-83
2022/04/06 05:09:38;;;;;;;75.63;27.77;;;6.60;99.90;;;;;;5027395;28;20026;-81
2022/04/06 05:12:04;;;;;;;164.18;59.50;;;6.60;99.90;;;;;;4994665;28;20129;-82
2022/04/06 05:14:31;;;;;;;89.78;32.20;;;6.60;99.90;;;;;;4995277;28;20034;-83
2022/04/06 05:16:56;;;;;;;74.85;30.92;;;6.70;99.90;;;;;;5027845;28;20088;-82
2022/04/06 05:19:22;;;;;;;82.35;31.27;;;6.60;99.90;;;;;;4995061;28;20515;-83
2022/04/06 05:21:48;;;;;;;82.88;30.70;;;6.70;99.90;;;;;;5027442;28;20119;-82
2022/04/06 05:24:13;;;;;;;89.65;32.65;;;6.70;99.90;;;;;;4994716;28;20054;-82
2022/04/06 05:26:39;;;;;;;80.22;29.45;;;6.70;99.90;;;;;;4994973;28;20451;-83
2022/04/06 05:29:05;;;;;;;74.93;28.17;;;6.70;99.90;;;;;;4994736;28;20410;-82
2022/04/06 05:31:30;;;;;;;83.82;31.27;;;6.70;99.90;;;;;;4995012;28;20038;-82
2022/04/06 05:33:56;;;;;;;77.72;30.80;;;6.70;99.90;;;;;;4995650;28;20030;-82
2022/04/06 05:36:24;;;;;;;83.00;31.33;;;6.70;99.90;;;;;;5031172;28;20120;-82
2022/04/06 05:38:50;;;;;;;85.78;32.05;;;6.70;99.90;;;;;;5014938;28;20266;-84
2022/04/06 05:41:16;;;;;;;84.93;30.08;;;6.70;99.90;;;;;;5014524;28;20560;-82
2022/04/06 05:43:42;;;;;;;80.57;31.45;;;6.70;99.90;;;;;;5030743;28;20489;-82
2022/04/06 05:49:58;;;;;;;59.83;24.83;;;6.70;99.90;;;;;;5015780;28;20482;-82
2022/04/06 05:52:24;;;;;;;71.25;28.20;;;6.80;99.90;;;;;;4997549;28;20044;-82
2022/04/06 05:54:51;;;;;;;68.35;27.05;;;6.80;99.90;;;;;;4998237;28;20461;-82
2022/04/06 05:57:17;;;;;;;82.47;28.77;;;6.70;99.90;;;;;;4998364;28;20036;-83
2022/04/06 05:59:44;;;;;;;75.05;27.77;;;6.80;99.90;;;;;;4998206;28;20041;-83
2022/04/06 06:02:10;;;;;;;67.88;26.33;;;6.80;99.90;;;;;;4998479;28;20038;-84
2022/04/06 06:04:38;;;;;;;73.07;28.13;;;6.80;99.90;;;;;;5030901;28;20041;-83
2022/04/06 06:07:05;;;;;;;64.45;27.98;;;6.80;99.90;;;;;;4997543;28;20052;-84
2022/04/06 06:09:31;;;;;;;70.00;26.90;;;6.70;99.90;;;;;;4997902;28;20038;-84
2022/04/06 06:11:56;;;;;;;68.72;26.38;;;6.80;99.90;;;;;;4997934;28;20501;-84
2022/04/06 06:14:22;;;;;;;71.43;27.30;;;6.80;99.90;;;;;;5030791;28;20045;-83
2022/04/06 06:16:49;;;;;;;71.93;28.70;;;6.80;99.90;;;;;;4997671;28;20030;-83
2022/04/06 06:19:15;;;;;;;68.00;29.52;;;6.80;99.90;;;;;;4998127;28;20115;-83
2022/04/06 06:21:41;;;;;;;74.43;29.63;;;6.90;99.90;;;;;;4981169;28;20042;-83
2022/04/06 06:24:07;;;;;;;72.28;31.45;;;6.80;99.90;;;;;;4997804;28;20385;-83
2022/04/06 06:26:37;;;;;;;72.53;27.98;;;6.90;99.90;;;;;;5030449;28;20777;-83
2022/04/06 06:29:03;;;;;;;72.13;30.52;;;6.80;99.90;;;;;;5013875;28;20030;-83
2022/04/06 06:31:29;;;;;;;71.32;31.00;;;6.80;99.90;;;;;;4997253;28;20688;-83
2022/04/06 06:33:58;;;;;;;70.97;30.55;;;7.00;99.90;;;;;;4997511;28;20084;-83
2022/04/06 06:36:25;;;;;;;93.93;32.53;;;6.90;99.90;;;;;;5030353;28;20045;-82
2022/04/06 06:38:51;;;;;;;82.75;32.25;;;7.00;99.90;;;;;;4996820;28;20045;-83
2022/04/06 06:41:18;;;;;;;72.10;32.28;;;7.00;99.90;;;;;;4997375;28;20033;-83
2022/04/06 06:43:48;;;;;;;77.78;32.35;;;7.00;99.90;;;;;;4997580;28;20061;-83
2022/04/06 06:46:15;;;;;;;72.63;28.47;;;7.00;99.90;;;;;;5012705;28;20033;-82
2022/04/06 06:48:41;;;;;;;71.03;30.35;;;6.90;99.90;;;;;;4997237;28;20037;-83
2022/04/06 06:51:07;;;;;;;70.65;29.85;;;7.00;99.90;;;;;;4997670;28;20030;-83
2022/04/06 06:53:32;;;;;;;70.68;30.45;;;7.00;99.90;;;;;;4997356;28;20030;-83
2022/04/06 06:55:58;;;;;;;65.63;31.05;;;7.00;99.90;;;;;;5029662;28;20029;-83
2022/04/06 06:58:24;;;;;;;61.42;29.23;;;7.00;99.90;;;;;;4997097;28;20037;-83
2022/04/06 07:00:49;;;;;;;65.65;29.15;;;7.00;99.90;;;;;;4997178;28;20515;-82
2022/04/06 07:03:15;;;;;;;55.90;26.40;;;7.10;99.90;;;;;;4996940;28;20366;-82
2022/04/06 07:05:41;;;;;;;56.42;26.95;;;7.20;99.90;;;;;;4996618;28;20038;-83
2022/04/06 07:08:08;;;;;;;53.42;25.98;;;7.30;99.90;;;;;;4995932;28;20092;-83
2022/04/06 07:10:34;;;;;;;49.88;25.20;;;7.40;99.90;;;;;;4996574;28;20061;-83
2022/04/06 07:12:59;;;;;;;45.67;25.60;;;7.50;99.90;;;;;;5028921;28;20030;-83
2022/04/06 07:15:25;;;;;;;47.75;21.63;;;7.50;99.90;;;;;;4996198;28;20113;-83
2022/04/06 07:17:53;;;;;;;50.55;21.92;;;7.60;99.90;;;;;;4996038;28;20038;-83
2022/04/06 07:20:19;;;;;;;35.53;20.10;;;7.70;99.90;;;;;;5012766;28;20121;-84
2022/04/06 07:22:45;;;;;;;34.70;20.05;;;7.90;99.90;;;;;;4996308;28;20033;-82
2022/04/06 07:25:11;;;;;;;29.20;16.42;;;7.90;99.90;;;;;;4995979;28;20045;-83
2022/04/06 07:27:37;;;;;;;29.55;16.92;;;8.10;99.90;;;;;;4995762;28;20371;-83
2022/04/06 07:30:08;;;;;;;26.92;16.60;;;8.10;99.90;;;;;;4995926;28;20433;-83
2022/04/06 07:32:35;;;;;;;27.95;15.77;;;8.20;99.90;;;;;;5012537;28;20694;-83
2022/04/06 07:35:03;;;;;;;22.27;15.13;;;8.20;99.90;;;;;;4995865;28;20146;-83
2022/04/06 07:37:40;;;;;;;23.35;14.02;;;8.20;99.90;;;;;;4995607;28;20048;-83
2022/04/06 07:40:08;;;;;;;24.98;12.88;;;8.20;99.90;;;;;;5028828;28;20393;-83
2022/04/06 07:42:35;;;;;;;24.05;14.70;;;8.30;99.90;;;;;;4996396;28;20087;-83
2022/04/06 07:45:09;;;;;;;23.23;14.10;;;8.20;99.90;;;;;;4996587;28;20095;-83
2022/04/06 07:48:12;;;;;;;23.00;13.73;;;8.30;99.90;;;;;;5012615;28;20045;-83
2022/04/06 07:50:38;;;;;;;34.80;17.75;;;8.40;99.90;;;;;;4996467;28;20508;-81
2022/04/06 07:53:04;;;;;;;20.33;12.80;;;8.20;99.90;;;;;;4995742;28;20038;-82
2022/04/06 07:55:29;;;;;;;27.60;15.60;;;8.20;99.90;;;;;;4996070;28;20496;-81
2022/04/06 07:57:55;;;;;;;23.20;12.10;;;8.30;99.90;;;;;;4995354;28;20109;-81
2022/04/06 08:00:21;;;;;;;19.17;11.75;;;8.30;99.90;;;;;;4995759;28;20033;-81
2022/04/06 08:02:49;;;;;;;20.00;12.57;;;8.30;99.90;;;;;;4995541;28;20045;-81
2022/04/06 08:05:15;;;;;;;17.77;11.77;;;8.40;99.90;;;;;;4995493;28;20034;-82
2022/04/06 08:07:43;;;;;;;21.05;12.43;;;8.50;99.90;;;;;;4995615;28;20041;-82
2022/04/06 08:10:11;;;;;;;19.70;10.93;;;8.60;99.90;;;;;;4995635;28;20045;-81
2022/04/06 08:12:37;;;;;;;20.63;12.05;;;8.70;99.90;;;;;;5028398;28;20034;-81
2022/04/06 08:15:18;;;;;;;20.80;11.73;;;8.60;99.90;;;;;;5028422;28;20034;-81
2022/04/06 08:17:46;;;;;;;21.98;11.18;;;8.70;99.90;;;;;;5011520;28;20772;-82
2022/04/06 08:20:14;;;;;;;16.65;11.80;;;8.60;99.90;;;;;;5028149;28;20160;-82
2022/04/06 08:23:01;;;;;;;17.52;11.05;;;8.70;99.90;;;;;;4995425;28;20535;-81
2022/04/06 08:25:27;;;;;;;18.40;11.38;;;8.90;99.90;;;;;;4995238;28;20087;-81
2022/04/06 08:27:53;;;;;;;19.83;10.95;;;8.90;99.90;;;;;;4995358;28;20146;-81
2022/04/06 08:30:22;;;;;;;15.63;10.30;;;9.10;99.90;;;;;;4995710;28;20029;-81
2022/04/06 08:33:07;;;;;;;14.13;10.05;;;9.10;99.90;;;;;;5044689;28;20037;-82
2022/04/06 08:35:33;;;;;;;15.63;9.63;;;9.30;99.90;;;;;;4995229;28;20042;-81
2022/04/06 08:37:59;;;;;;;18.73;9.40;;;9.30;99.90;;;;;;4994855;28;20038;-81
2022/04/06 08:40:26;;;;;;;17.33;10.30;;;9.60;99.90;;;;;;4995203;28;20049;-81
2022/04/06 08:42:52;;;;;;;15.13;9.60;;;9.50;99.90;;;;;;4995427;28;20045;-81
2022/04/06 08:45:18;;;;;;;17.08;9.98;;;9.70;99.90;;;;;;4995233;28;20037;-81
2022/04/06 08:47:47;;;;;;;15.10;10.35;;;9.60;99.90;;;;;;5012407;28;20026;-81
2022/04/06 08:50:13;;;;;;;14.88;10.35;;;9.70;99.90;;;;;;5027981;28;20045;-81
2022/04/06 08:52:40;;;;;;;136.63;63.03;;;9.80;99.90;;;;;;4994963;28;20026;-81
2022/04/06 08:55:06;;;;;;;17.60;11.90;;;9.80;99.90;;;;;;4994904;28;20026;-81
2022/04/06 08:57:33;;;;;;;16.10;10.30;;;9.60;99.90;;;;;;4994736;28;20040;-81
2022/04/06 08:59:58;;;;;;;15.27;10.18;;;9.40;99.90;;;;;;4995418;28;20030;-81
2022/04/06 09:02:24;;;;;;;15.20;10.07;;;9.50;99.90;;;;;;4995369;28;20088;-81
2022/04/06 09:04:55;;;;;;;12.02;8.98;;;10.00;99.90;;;;;;4995409;28;20579;-84
2022/04/06 09:07:22;;;;;;;17.65;9.82;;;9.90;99.90;;;;;;4995109;28;20100;-82
2022/04/06 09:09:52;;;;;;;23.27;10.35;;;9.90;99.90;;;;;;4997959;28;20076;-83
2022/04/06 09:12:25;;;;;;;15.25;9.60;;;9.80;99.90;;;;;;4999013;28;20032;-83
2022/04/06 09:15:08;;;;;;;19.50;11.43;;;9.80;99.90;;;;;;4998605;28;20084;-83
2022/04/06 09:17:47;;;;;;;16.83;9.75;;;9.80;99.90;;;;;;4998924;28;20034;-83
2022/04/06 09:20:14;;;;;;;17.65;9.40;;;9.50;99.90;;;;;;5031703;28;20038;-83
2022/04/06 09:22:41;;;;;;;21.13;10.02;;;9.40;99.90;;;;;;4998697;28;20425;-83
2022/04/06 09:25:09;;;;;;;21.10;10.18;;;9.70;99.90;;;;;;4998897;28;20128;-83
2022/04/06 09:28:08;;;;;;;11.60;7.47;;;11.10;99.90;;;;;;5048015;28;20034;-83
2022/04/06 09:30:37;;;;;;;11.50;7.20;;;12.20;99.90;;;;;;4998577;28;20030;-83
2022/04/06 09:33:03;;;;;;;10.82;6.97;;;12.50;99.90;;;;;;4998159;28;20116;-83
2022/04/06 09:35:32;;;;;;;12.38;8.70;;;12.70;99.90;;;;;;4998439;28;20051;-82
2022/04/06 09:38:23;;;;;;;17.95;8.00;;;12.50;99.90;;;;;;4997807;28;20029;-82
2022/04/06 09:40:59;;;;;;;8.75;6.18;;;11.80;99.90;;;;;;5031319;28;20030;-83
2022/04/06 09:43:27;;;;;;;10.50;6.03;;;11.40;99.90;;;;;;4998685;28;20038;-83
2022/04/06 09:48:57;;;;;;;12.18;7.00;;;11.20;99.90;;;;;;5030866;28;20033;-83
2022/04/06 09:51:24;;;;;;;7.57;5.97;;;11.00;99.90;;;;;;5015740;28;20029;-83
2022/04/06 09:53:51;;;;;;;13.45;6.20;;;11.20;99.90;;;;;;4998506;28;20385;-84
2022/04/06 09:56:18;;;;;;;12.18;6.78;;;11.00;99.90;;;;;;4998306;28;20026;-83
2022/04/06 09:58:56;;;;;;;11.10;6.60;;;10.90;99.90;;;;;;4998241;28;20468;-83
2022/04/06 10:01:26;;;;;;;15.15;7.25;;;10.50;99.90;;;;;;4998163;28;20072;-82
2022/04/06 10:03:57;;;;;;;10.85;6.40;;;10.30;99.90;;;;;;5015435;28;20045;-81
2022/04/06 10:06:23;;;;;;;14.65;7.28;;;10.20;99.90;;;;;;4997972;28;20041;-81
2022/04/06 10:08:49;;;;;;;13.52;6.75;;;10.20;99.90;;;;;;5013669;28;20033;-81
2022/04/06 10:11:18;;;;;;;11.70;7.18;;;10.10;99.90;;;;;;4997860;28;20029;-82
2022/04/06 10:13:45;;;;;;;9.90;6.75;;;10.20;99.90;;;;;;4997661;28;20420;-82
2022/04/06 10:16:12;;;;;;;10.70;6.80;;;10.30;99.90;;;;;;4996976;28;20485;-81
2022/04/06 10:18:40;;;;;;;10.65;7.68;;;10.60;99.90;;;;;;5013193;28;20026;-82
2022/04/06 10:21:24;;;;;;;11.00;6.15;;;10.90;99.90;;;;;;4996968;28;20556;-84
2022/04/06 10:24:28;;;;;;;8.63;5.60;;;11.40;99.90;;;;;;5030268;28;20048;-84
2022/04/06 10:27:14;;;;;;;10.15;6.55;;;12.00;99.90;;;;;;5013355;28;20116;-84
2022/04/06 10:30:05;;;;;;;28.75;6.55;;;11.70;99.90;;;;;;4997566;28;20029;-84
2022/04/06 10:32:35;;;;;;;9.18;6.05;;;11.30;99.90;;;;;;5013520;28;20041;-81
2022/04/06 10:35:27;;;;;;;9.02;5.72;;;11.10;99.90;;;;;;4996942;28;20033;-84
2022/04/06 10:37:56;;;;;;;9.40;6.38;;;11.00;99.90;;;;;;4997203;28;20694;-82
2022/04/06 10:40:23;;;;;;;7.43;5.18;;;11.10;99.90;;;;;;5013860;28;20026;-82
2022/04/06 10:42:50;;;;;;;9.48;5.80;;;11.40;99.90;;;;;;4997496;28;20071;-84
2022/04/06 10:45:36;;;;;;;9.00;5.88;;;11.40;99.90;;;;;;5014107;28;20029;-85
2022/04/06 10:48:08;;;;;;;7.65;5.25;;;11.40;99.90;;;;;;4997219;28;20040;-84
2022/04/06 10:50:33;;;;;;;12.52;5.70;;;11.40;99.90;;;;;;5013768;28;20129;-84
2022/04/06 10:53:18;;;;;;;14.27;9.10;;;11.60;99.90;;;;;;4997365;28;20536;-84
2022/04/06 10:56:11;;;;;;;297.20;113.32;;;11.40;99.90;;;;;;5013300;28;20036;-82
2022/04/06 10:58:55;;;;;;;15.73;7.03;;;11.10;99.90;;;;;;4996735;28;20048;-83
2022/04/06 11:01:33;;;;;;;9.63;6.60;;;10.80;99.90;;;;;;5013149;28;20042;-83
2022/04/06 11:04:04;;;;;;;8.80;6.35;;;10.40;99.90;;;;;;5012609;28;20030;-83
2022/04/06 11:06:48;;;;;;;9.70;7.05;;;10.10;99.90;;;;;;4996332;28;20077;-83
2022/04/06 11:12:26;;;;;;;12.80;7.18;;;10.10;99.90;;;;;;5029434;28;20037;-83
2022/04/06 11:15:01;;;;;;;11.75;7.22;;;10.10;99.90;;;;;;5028795;28;20065;-82
2022/04/06 11:17:34;;;;;;;14.18;7.05;;;10.00;99.90;;;;;;5012547;28;20129;-82
2022/04/06 11:20:03;;;;;;;11.82;6.82;;;9.90;99.90;;;;;;5029660;28;20038;-83
2022/04/06 11:22:29;;;;;;;8.40;6.55;;;10.10;99.90;;;;;;4996269;28;20125;-83
2022/04/06 11:24:55;;;;;;;11.85;6.13;;;10.10;99.90;;;;;;5012773;28;20149;-82
2022/04/06 11:27:35;;;;;;;12.48;6.57;;;10.20;99.90;;;;;;4995941;28;20034;-82
2022/04/06 11:30:09;;;;;;;9.68;6.00;;;10.30;99.90;;;;;;5012849;28;20038;-83
2022/04/06 11:32:36;;;;;;;13.20;6.05;;;10.70;99.90;;;;;;5028892;28;20034;-82
2022/04/06 11:35:07;;;;;;;9.50;6.30;;;11.00;99.90;;;;;;5012802;28;20125;-82
2022/04/06 11:37:46;;;;;;;11.60;6.22;;;10.90;99.90;;;;;;4995638;28;20065;-83
2022/04/06 11:40:13;;;;;;;10.60;6.70;;;10.60;99.90;;;;;;4996174;28;20038;-83
2022/04/06 11:42:40;;;;;;;19.23;6.60;;;10.40;99.90;;;;;;4995683;28;20034;-83
2022/04/06 11:45:07;;;;;;;13.23;6.35;;;10.60;99.90;;;;;;4996269;28;20040;-83
2022/04/06 11:47:37;;;;;;;13.30;7.03;;;11.40;99.90;;;;;;5013364;28;20040;-83
2022/04/06 11:50:08;;;;;;;9.50;6.97;;;11.80;99.90;;;;;;4996220;28;20493;-83
2022/04/06 11:52:36;;;;;;;10.27;6.57;;;11.80;99.90;;;;;;4995751;28;20041;-82
2022/04/06 11:55:02;;;;;;;14.18;6.88;;;11.50;99.90;;;;;;4995230;28;20041;-83
2022/04/06 11:57:35;;;;;;;12.70;7.40;;;11.20;99.90;;;;;;4995544;28;20757;-83
2022/04/06 12:00:06;;;;;;;8.98;6.03;;;11.10;99.90;;;;;;5013524;28;20037;-83
2022/04/06 12:03:05;;;;;;;14.65;7.22;;;11.20;99.90;;;;;;5012775;28;20095;-83
2022/04/06 12:05:33;;;;;;;10.45;5.80;;;11.50;99.90;;;;;;4948038;28;20132;-83
2022/04/06 12:08:13;;;;;;;10.00;5.82;;;11.90;99.90;;;;;;4995915;28;20038;-83
2022/04/06 12:10:56;;;;;;;14.57;5.85;;;12.20;99.90;;;;;;4995668;28;20030;-83
2022/04/06 12:13:23;;;;;;;11.00;6.05;;;12.20;99.90;;;;;;4995883;28;20572;-83
2022/04/06 12:15:50;;;;;;;10.38;5.75;;;11.90;99.90;;;;;;4995933;28;20034;-83
2022/04/06 12:18:17;;;;;;;7.53;5.38;;;12.40;99.90;;;;;;4995503;28;20124;-83
2022/04/06 12:20:43;;;;;;;12.57;6.40;;;12.70;99.90;;;;;;5011437;28;20128;-83
2022/04/06 12:23:09;;;;;;;9.82;5.90;;;12.80;99.90;;;;;;4991829;28;20713;-83
2022/04/06 12:25:36;;;;;;;13.63;5.82;;;12.90;99.90;;;;;;4995698;28;20508;-83
2022/04/06 12:28:26;;;;;;;17.42;5.75;;;13.30;99.90;;;;;;5011656;28;20058;-83
2022/04/06 12:30:59;;;;;;;12.48;5.70;;;13.20;99.90;;;;;;5012946;28;20029;-83
2022/04/06 12:33:45;;;;;;;12.45;5.78;;;12.80;99.90;;;;;;4994674;28;20080;-83
2022/04/06 12:36:17;;;;;;;10.38;5.80;;;12.30;99.90;;;;;;5027507;28;20069;-84
2022/04/06 12:39:08;;;;;;;8.73;5.20;;;12.20;99.90;;;;;;5012244;28;20034;-83
2022/04/06 12:41:53;;;;;;;8.70;5.63;;;12.30;99.90;;;;;;4992274;28;20485;-83
2022/04/06 12:44:19;;;;;;;7.15;5.32;;;12.00;99.90;;;;;;4994276;28;20492;-84
2022/04/06 12:46:49;;;;;;;10.18;5.20;;;12.10;99.90;;;;;;4995901;28;20030;-83
2022/04/06 12:49:37;;;;;;;9.30;5.68;;;12.30;99.90;;;;;;4994733;28;20030;-83
2022/04/06 12:52:18;;;;;;;10.95;5.13;;;12.30;99.90;;;;;;4994866;28;20120;-83
2022/04/06 12:54:45;;;;;;;9.30;4.85;;;12.80;99.90;;;;;;5011637;28;20034;-83
2022/04/06 12:57:28;;;;;;;13.32;7.30;;;12.50;99.90;;;;;;5011271;28;20033;-83
2022/04/06 12:59:59;;;;;;;7.15;4.45;;;12.30;99.90;;;;;;4995361;28;20053;-83